Time;durP1;ratioP1;P1;durP2;ratioP2;P2;SDS_P1;SDS_P2;PMS_P1;PMS_P2;Temp;Humidity;BMP_temperature;BMP_pressure;BME280_temperature;BME280_humidity;BME280_pressure;Samples;Min_cycle;Max_cycle;Signal;HPM_P1;HPM_P2
2022/09/05 00:01:40;;;;;;;1.58;1.45;;;22.30;51.10;;;;;;5018623;28;20065;-62
2022/09/05 00:04:14;;;;;;;3.33;1.33;;;22.30;51.10;;;;;;5019063;28;20590;-62
2022/09/05 00:06:50;;;;;;;4.00;1.85;;;22.30;51.20;;;;;;5018247;28;20054;-61
2022/09/05 00:09:41;;;;;;;1.70;1.40;;;22.30;51.30;;;;;;5016943;28;20060;-58
2022/09/05 00:12:09;;;;;;;4.03;1.40;;;22.30;51.30;;;;;;5018530;28;20060;-60
2022/09/05 00:14:54;;;;;;;1.80;1.70;;;22.30;51.20;;;;;;5021667;28;20053;-62
2022/09/05 00:17:30;;;;;;;1.50;1.40;;;22.20;51.20;;;;;;5018449;28;20072;-62
2022/09/05 00:20:05;;;;;;;3.33;1.45;;;22.20;51.20;;;;;;5017240;28;20049;-60
2022/09/05 00:22:42;;;;;;;4.40;1.60;;;22.20;51.20;;;;;;5019137;28;20053;-59
2022/09/05 00:25:35;;;;;;;2.50;1.50;;;22.20;51.20;;;;;;5015012;28;20060;-62
2022/09/05 00:28:09;;;;;;;1.77;1.50;;;22.20;51.20;;;;;;5021292;28;20544;-61
2022/09/05 00:30:43;;;;;;;3.00;1.60;;;22.20;51.20;;;;;;5009367;28;20061;-62
2022/09/05 00:33:31;;;;;;;2.92;1.90;;;22.20;51.20;;;;;;5021779;28;20058;-61
2022/09/05 00:36:22;;;;;;;2.88;1.50;;;22.20;51.30;;;;;;5015462;28;20061;-61
2022/09/05 00:38:58;;;;;;;2.03;1.65;;;22.20;51.90;;;;;;5017280;28;20390;-61
2022/09/05 00:41:27;;;;;;;1.85;1.70;;;22.10;51.30;;;;;;5014813;28;20060;-62
2022/09/05 00:43:56;;;;;;;5.13;1.70;;;22.10;51.30;;;;;;5021254;28;20053;-62
2022/09/05 00:46:27;;;;;;;2.58;1.55;;;22.10;51.30;;;;;;5017373;28;20053;-62
2022/09/05 00:49:08;;;;;;;1.73;1.60;;;22.10;51.40;;;;;;5018858;28;20061;-62
2022/09/05 00:51:39;;;;;;;2.42;1.60;;;22.00;51.40;;;;;;5007308;28;20057;-61
2022/09/05 00:54:31;;;;;;;2.28;1.70;;;22.00;51.50;;;;;;5017759;28;20057;-59
2022/09/05 00:57:08;;;;;;;1.60;1.42;;;22.00;51.60;;;;;;5017611;28;20057;-61
2022/09/05 00:59:56;;;;;;;2.85;1.77;;;22.00;51.50;;;;;;5018448;28;20520;-60
2022/09/05 01:02:41;;;;;;;2.63;1.92;;;22.00;51.60;;;;;;5019587;28;20548;-62
2022/09/05 01:05:24;;;;;;;1.60;1.50;;;21.90;51.70;;;;;;5022221;28;20053;-57
2022/09/05 01:08:06;;;;;;;1.92;1.38;;;21.90;51.70;;;;;;5025463;28;20503;-62
2022/09/05 01:10:42;;;;;;;1.88;1.55;;;21.90;51.70;;;;;;5014304;28;20049;-60
2022/09/05 01:13:20;;;;;;;2.38;1.70;;;21.80;51.70;;;;;;5025109;28;20057;-59
2022/09/05 01:15:55;;;;;;;2.17;1.58;;;21.80;51.80;;;;;;5023226;28;20062;-62
2022/09/05 01:18:37;;;;;;;4.22;1.67;;;21.80;51.80;;;;;;5024734;28;20068;-62
2022/09/05 01:21:28;;;;;;;1.88;1.70;;;21.80;52.00;;;;;;5013875;28;20076;-62
2022/09/05 01:24:12;;;;;;;2.20;1.90;;;21.70;51.90;;;;;;5011634;28;20049;-59
2022/09/05 01:27:12;;;;;;;1.90;1.52;;;21.70;52.00;;;;;;5022901;28;20064;-62
2022/09/05 01:29:45;;;;;;;2.90;1.80;;;21.70;52.00;;;;;;5017206;28;20065;-61
2022/09/05 01:32:25;;;;;;;2.10;1.90;;;21.70;52.00;;;;;;5019496;28;20064;-62
2022/09/05 01:35:04;;;;;;;1.98;1.65;;;21.70;52.00;;;;;;5023192;28;20054;-57
2022/09/05 01:37:38;;;;;;;2.45;1.80;;;21.60;52.10;;;;;;5012212;28;20059;-63
2022/09/05 01:40:23;;;;;;;2.40;1.80;;;21.60;52.10;;;;;;5008685;28;20490;-60
2022/09/05 01:43:10;;;;;;;2.78;1.75;;;21.50;52.70;;;;;;5022488;28;20053;-61
2022/09/05 01:45:49;;;;;;;1.70;1.60;;;21.50;52.30;;;;;;5013704;28;20108;-61
2022/09/05 01:48:29;;;;;;;2.90;1.70;;;21.50;52.60;;;;;;5023765;28;20058;-61
2022/09/05 01:51:09;;;;;;;2.35;1.80;;;21.50;52.30;;;;;;5012145;28;20053;-60
2022/09/05 01:53:42;;;;;;;2.92;2.22;;;21.50;52.40;;;;;;5022041;28;20060;-62
2022/09/05 01:56:40;;;;;;;2.53;1.75;;;21.50;52.40;;;;;;5021156;28;20053;-61
2022/09/05 01:59:22;;;;;;;2.35;2.00;;;21.50;52.50;;;;;;5023836;28;20057;-62
2022/09/05 02:02:12;;;;;;;2.20;1.50;;;21.40;52.50;;;;;;5015749;28;20256;-60
2022/09/05 02:05:01;;;;;;;2.30;2.08;;;21.40;52.50;;;;;;5022775;28;20064;-62
2022/09/05 02:07:45;;;;;;;2.00;1.80;;;21.40;52.60;;;;;;5020734;28;20080;-61
2022/09/05 02:10:41;;;;;;;3.27;2.07;;;21.40;52.60;;;;;;5013515;28;20060;-62
2022/09/05 02:13:20;;;;;;;3.05;2.00;;;21.30;52.70;;;;;;5013453;28;21038;-62
2022/09/05 02:15:52;;;;;;;2.17;1.80;;;21.30;52.70;;;;;;5019709;28;20056;-61
2022/09/05 02:18:26;;;;;;;3.08;2.00;;;21.30;52.70;;;;;;5023550;28;20072;-61
2022/09/05 02:20:59;;;;;;;2.97;1.88;;;21.30;52.80;;;;;;5011726;28;20053;-62
2022/09/05 02:23:39;;;;;;;2.07;1.70;;;21.30;52.80;;;;;;5023125;28;20045;-60
2022/09/05 02:26:16;;;;;;;2.50;2.20;;;21.20;52.80;;;;;;5017509;28;20060;-62
2022/09/05 02:28:51;;;;;;;4.63;2.58;;;21.20;52.90;;;;;;5014178;28;20425;-62
2022/09/05 02:31:24;;;;;;;5.18;2.05;;;21.20;53.00;;;;;;5012124;28;20559;-62
2022/09/05 02:34:00;;;;;;;2.17;1.73;;;21.20;53.00;;;;;;5023242;28;20056;-61
2022/09/05 02:36:36;;;;;;;2.95;2.20;;;21.10;53.00;;;;;;5019532;28;20061;-61
2022/09/05 02:39:16;;;;;;;2.20;1.73;;;21.10;53.10;;;;;;5022942;28;20405;-58
2022/09/05 02:41:50;;;;;;;2.15;1.95;;;21.10;53.10;;;;;;5016161;28;20053;-62
2022/09/05 02:44:24;;;;;;;2.60;2.03;;;21.10;53.20;;;;;;5014445;28;20394;-60
2022/09/05 02:46:59;;;;;;;2.85;2.22;;;21.10;53.20;;;;;;5024022;28;20053;-62
2022/09/05 02:49:43;;;;;;;3.00;1.90;;;21.10;53.30;;;;;;5021082;28;20065;-61
2022/09/05 02:52:14;;;;;;;2.97;1.88;;;21.10;53.40;;;;;;5017154;28;20052;-61
2022/09/05 02:54:46;;;;;;;2.97;2.05;;;21.10;53.30;;;;;;5014823;28;20061;-62
2022/09/05 02:57:33;;;;;;;1.92;1.75;;;21.10;53.30;;;;;;5023071;28;20068;-61
2022/09/05 03:00:09;;;;;;;2.60;1.85;;;21.00;53.40;;;;;;5020302;28;20497;-62
2022/09/05 03:02:58;;;;;;;2.60;1.98;;;21.00;53.40;;;;;;5019429;28;20065;-62
2022/09/05 03:05:30;;;;;;;2.92;1.90;;;21.00;53.50;;;;;;5020908;28;20053;-59
2022/09/05 03:08:25;;;;;;;3.42;2.40;;;21.00;53.50;;;;;;5020641;28;20061;-62
2022/09/05 03:11:18;;;;;;;3.58;2.25;;;21.00;53.60;;;;;;4996553;28;20053;-60
2022/09/05 03:14:33;;;;;;;3.00;2.00;;;21.00;53.70;;;;;;5014671;28;20041;-60
2022/09/05 03:17:36;;;;;;;5.43;2.33;;;21.00;53.60;;;;;;5015226;28;20394;-61
2022/09/05 03:20:52;;;;;;;2.95;1.85;;;20.90;53.60;;;;;;5013934;28;20053;-62
2022/09/05 03:23:48;;;;;;;3.35;1.92;;;21.00;53.70;;;;;;5021487;28;20405;-62
2022/09/05 03:27:00;;;;;;;3.00;2.15;;;20.90;53.80;;;;;;5019342;28;20503;-62
2022/09/05 03:30:07;;;;;;;2.95;1.85;;;20.90;53.80;;;;;;4960939;28;20423;-62
2022/09/05 03:33:21;;;;;;;2.88;2.08;;;20.90;53.90;;;;;;4953984;28;20058;-62
2022/09/05 03:36:21;;;;;;;2.80;1.95;;;20.90;53.90;;;;;;5020519;28;20053;-61
2022/09/05 03:39:27;;;;;;;3.05;1.95;;;20.90;53.90;;;;;;5016638;28;20413;-61
2022/09/05 03:42:30;;;;;;;8.45;4.13;;;20.80;54.00;;;;;;5014135;28;20056;-60
2022/09/05 03:45:20;;;;;;;7.25;4.53;;;20.90;54.10;;;;;;5020154;28;20046;-61
2022/09/05 03:48:07;;;;;;;8.65;2.80;;;20.90;54.20;;;;;;5008081;28;20191;-62
2022/09/05 03:50:49;;;;;;;3.33;2.45;;;20.80;54.20;;;;;;5012052;28;20054;-62
2022/09/05 03:53:51;;;;;;;3.53;2.30;;;20.80;54.20;;;;;;5022140;28;20532;-63
2022/09/05 03:56:36;;;;;;;3.72;2.50;;;20.80;54.20;;;;;;5017487;28;20056;-61
2022/09/05 03:59:41;;;;;;;2.88;2.25;;;20.80;54.20;;;;;;5018867;28;20057;-63
2022/09/05 04:02:11;;;;;;;3.50;2.15;;;20.80;54.20;;;;;;5013987;28;20049;-62
2022/09/05 04:04:49;;;;;;;5.18;2.47;;;20.80;54.10;;;;;;5020300;28;20046;-60
2022/09/05 04:07:23;;;;;;;2.83;2.20;;;20.80;54.30;;;;;;5017262;28;20064;-62
2022/09/05 04:09:58;;;;;;;3.50;2.25;;;20.80;54.20;;;;;;5011086;28;20653;-60
2022/09/05 04:12:31;;;;;;;3.03;2.28;;;20.90;54.40;;;;;;5020030;28;20053;-63
2022/09/05 04:15:02;;;;;;;2.67;2.17;;;20.80;54.30;;;;;;5020368;28;21277;-62
2022/09/05 04:17:35;;;;;;;3.33;2.17;;;20.80;54.30;;;;;;5004870;28;20056;-61
2022/09/05 04:20:10;;;;;;;3.53;2.20;;;20.80;54.30;;;;;;5014961;28;20050;-61
2022/09/05 04:23:01;;;;;;;3.67;2.30;;;20.80;54.30;;;;;;5021003;28;20067;-62
2022/09/05 04:25:44;;;;;;;3.85;2.70;;;20.90;54.40;;;;;;5018708;28;20050;-62
2022/09/05 04:28:21;;;;;;;2.85;2.22;;;20.90;54.30;;;;;;5015956;28;20065;-62
2022/09/05 04:30:55;;;;;;;6.40;4.07;;;20.80;54.30;;;;;;5012582;28;20057;-62
2022/09/05 04:33:28;;;;;;;5.38;3.17;;;20.80;54.20;;;;;;5017969;28;20172;-63
2022/09/05 04:36:06;;;;;;;3.55;2.80;;;20.90;54.20;;;;;;5017438;28;20058;-58
2022/09/05 04:38:38;;;;;;;3.33;2.45;;;20.80;54.20;;;;;;5024889;28;20072;-62
2022/09/05 04:41:11;;;;;;;3.40;2.50;;;20.80;54.20;;;;;;5020005;28;20117;-62
2022/09/05 04:43:45;;;;;;;4.07;2.60;;;20.80;54.20;;;;;;5025642;28;20057;-62
2022/09/05 04:46:18;;;;;;;2.80;2.20;;;20.80;54.20;;;;;;5022096;28;20516;-63
2022/09/05 04:48:53;;;;;;;3.30;2.47;;;20.80;54.20;;;;;;5021934;28;20065;-62
2022/09/05 04:51:46;;;;;;;3.13;2.40;;;20.80;54.20;;;;;;5018576;28;20053;-62
2022/09/05 04:54:31;;;;;;;2.67;2.08;;;20.80;54.20;;;;;;5014469;28;20054;-59
2022/09/05 04:57:09;;;;;;;3.53;2.17;;;20.80;54.20;;;;;;5018877;28;20046;-62
2022/09/05 04:59:44;;;;;;;4.22;2.50;;;20.80;54.20;;;;;;5014757;28;20050;-60
2022/09/05 05:02:19;;;;;;;2.40;2.20;;;20.80;54.20;;;;;;5015160;28;20064;-56
2022/09/05 05:04:47;;;;;;;4.50;2.53;;;20.70;54.20;;;;;;5024238;28;20061;-62
2022/09/05 05:07:20;;;;;;;3.08;2.15;;;20.70;54.20;;;;;;5020155;28;20069;-62
2022/09/05 05:09:49;;;;;;;4.80;2.47;;;20.80;54.30;;;;;;5017063;28;20058;-60
2022/09/05 05:12:23;;;;;;;8.77;2.50;;;20.70;54.30;;;;;;5018532;28;21026;-62
2022/09/05 05:14:56;;;;;;;3.70;2.60;;;20.70;54.40;;;;;;5014454;28;20054;-62
2022/09/05 05:17:32;;;;;;;21.30;12.20;;;20.70;54.40;;;;;;5021248;28;20503;-62
2022/09/05 05:20:10;;;;;;;8.30;5.22;;;20.70;54.40;;;;;;5015642;28;20857;-62
2022/09/05 05:22:47;;;;;;;5.10;3.58;;;20.70;54.40;;;;;;5024162;28;20049;-62
2022/09/05 05:25:14;;;;;;;4.65;2.55;;;20.70;54.50;;;;;;5017986;28;20417;-63
2022/09/05 05:27:47;;;;;;;4.35;2.60;;;20.70;54.50;;;;;;5021188;28;20058;-62
2022/09/05 05:30:25;;;;;;;2.38;2.03;;;20.70;54.60;;;;;;5014467;28;20054;-63
2022/09/05 05:32:54;;;;;;;3.03;2.40;;;20.70;54.60;;;;;;5020992;28;20068;-61
2022/09/05 05:35:27;;;;;;;3.35;2.30;;;20.70;54.60;;;;;;5018307;28;20057;-62
2022/09/05 05:38:00;;;;;;;2.92;2.25;;;20.70;54.60;;;;;;5021504;28;20069;-62
2022/09/05 05:40:31;;;;;;;5.78;2.13;;;20.70;54.60;;;;;;5014491;28;20514;-62
2022/09/05 05:43:17;;;;;;;4.05;2.25;;;20.70;54.60;;;;;;5022041;28;20050;-59
2022/09/05 05:45:44;;;;;;;2.53;2.03;;;20.80;54.70;;;;;;5007576;28;20065;-61
2022/09/05 05:48:32;;;;;;;3.03;2.22;;;20.70;54.50;;;;;;5019778;28;20076;-62
2022/09/05 05:51:22;;;;;;;3.33;2.20;;;20.70;54.60;;;;;;5013155;28;20053;-60
2022/09/05 05:53:58;;;;;;;2.53;2.20;;;20.70;54.60;;;;;;5014086;28;20057;-62
2022/09/05 05:56:57;;;;;;;4.32;1.95;;;20.80;54.70;;;;;;5020271;28;20045;-62
2022/09/05 05:59:38;;;;;;;4.40;1.98;;;20.80;54.70;;;;;;5022204;28;20061;-59
2022/09/05 06:02:40;;;;;;;3.25;2.10;;;20.80;54.70;;;;;;5013241;28;20054;-62
2022/09/05 06:05:42;;;;;;;2.15;1.95;;;20.80;54.60;;;;;;5023739;28;20433;-62
2022/09/05 06:08:43;;;;;;;2.50;2.05;;;20.80;54.60;;;;;;5014569;28;20053;-62
2022/09/05 06:11:28;;;;;;;3.42;2.58;;;20.90;54.60;;;;;;5019258;28;20410;-62
2022/09/05 06:14:15;;;;;;;;;;;20.90;54.60;;;;;;5019943;28;20061;-61
2022/09/05 06:17:09;;;;;;;3.75;2.13;;;20.90;54.40;;;;;;5019077;28;20296;-61
2022/09/05 06:20:12;;;;;;;4.53;2.30;;;21.00;54.40;;;;;;5021813;28;20057;-61
2022/09/05 06:23:13;;;;;;;2.72;2.03;;;21.00;54.40;;;;;;5019477;28;20065;-62
2022/09/05 06:26:07;;;;;;;3.30;2.38;;;21.00;54.40;;;;;;4983987;28;20481;-59
2022/09/05 06:28:51;;;;;;;3.42;2.17;;;21.00;54.40;;;;;;5021849;28;20060;-62
2022/09/05 06:31:33;;;;;;;2.78;1.95;;;21.00;54.40;;;;;;5016268;28;20057;-62
2022/09/05 06:34:20;;;;;;;2.38;2.17;;;21.00;54.40;;;;;;5022102;28;20057;-63
2022/09/05 06:36:54;;;;;;;5.05;2.10;;;21.00;54.40;;;;;;5019675;28;20054;-61
2022/09/05 06:39:39;;;;;;;3.78;2.45;;;21.00;54.40;;;;;;5022460;28;20061;-62
2022/09/05 06:42:18;;;;;;;2.33;1.90;;;21.00;54.50;;;;;;5010821;28;20528;-62
2022/09/05 06:45:17;;;;;;;2.53;2.17;;;21.10;54.50;;;;;;5018255;28;20516;-63
2022/09/05 06:47:47;;;;;;;4.57;2.70;;;21.10;54.60;;;;;;5014081;28;20056;-61
2022/09/05 06:50:19;;;;;;;3.38;2.20;;;21.10;54.60;;;;;;5016129;28;20057;-59
2022/09/05 06:53:34;;;;;;;2.70;2.13;;;21.10;54.70;;;;;;5017475;28;20521;-62
2022/09/05 06:56:15;;;;;;;2.25;1.88;;;21.10;54.70;;;;;;5021523;28;20055;-62
2022/09/05 06:59:25;;;;;;;2.42;1.80;;;21.10;54.70;;;;;;5014193;28;20068;-62
2022/09/05 07:01:56;;;;;;;3.08;2.10;;;21.10;54.70;;;;;;5014367;28;20422;-63
2022/09/05 07:04:34;;;;;;;4.30;2.60;;;21.10;54.80;;;;;;5019322;28;20053;-62
2022/09/05 07:07:13;;;;;;;2.55;2.10;;;21.10;55.20;;;;;;5015795;28;20045;-62
2022/09/05 07:09:52;;;;;;;3.58;2.55;;;21.20;55.30;;;;;;5019125;28;20405;-62
2022/09/05 07:12:25;;;;;;;3.30;2.35;;;21.20;55.60;;;;;;5014466;28;20061;-62
2022/09/05 07:14:59;;;;;;;5.43;2.40;;;21.20;55.50;;;;;;5022550;28;20060;-61
2022/09/05 07:17:35;;;;;;;;;;;21.30;55.70;;;;;;5021347;28;20494;-62
2022/09/05 07:20:10;;;;;;;3.08;2.20;;;21.40;55.40;;;;;;5015589;28;19921;-59
2022/09/05 07:22:44;;;;;;;3.78;2.72;;;21.40;55.40;;;;;;5019269;28;20606;-61
2022/09/05 07:25:15;;;;;;;;;;;21.50;55.50;;;;;;5012139;28;20054;-62
2022/09/05 07:27:47;;;;;;;2.13;1.92;;;21.60;55.40;;;;;;5019044;28;20285;-63
2022/09/05 07:30:18;;;;;;;4.18;2.30;;;21.60;55.40;;;;;;5018365;28;20062;-61
2022/09/05 07:32:49;;;;;;;2.42;1.65;;;21.70;55.50;;;;;;5022847;28;20061;-62
2022/09/05 07:35:21;;;;;;;2.85;2.08;;;21.80;55.50;;;;;;5021621;28;20053;-62
2022/09/05 07:38:00;;;;;;;2.80;1.60;;;21.90;55.70;;;;;;5021382;28;20058;-61
2022/09/05 07:40:29;;;;;;;1.77;1.50;;;21.90;55.50;;;;;;5015780;28;20404;-62
2022/09/05 07:43:01;;;;;;;3.78;1.73;;;22.00;55.40;;;;;;5018192;28;20057;-61
2022/09/05 07:45:29;;;;;;;3.38;1.80;;;22.10;55.30;;;;;;5022479;28;20057;-61
2022/09/05 07:48:02;;;;;;;4.25;1.80;;;22.20;55.20;;;;;;5017957;28;20064;-62
2022/09/05 07:50:31;;;;;;;2.60;2.00;;;22.30;55.00;;;;;;5015766;28;20071;-57
2022/09/05 07:53:03;;;;;;;3.15;1.80;;;22.30;54.80;;;;;;5020986;28;20053;-61
2022/09/05 07:55:34;;;;;;;3.42;1.60;;;22.30;54.60;;;;;;5018748;28;20050;-62
2022/09/05 07:58:05;;;;;;;3.10;1.92;;;22.40;54.50;;;;;;5017554;28;20053;-62
2022/09/05 08:00:32;;;;;;;2.30;1.63;;;22.40;54.40;;;;;;5019135;28;20532;-62
2022/09/05 08:03:08;;;;;;;2.83;1.80;;;22.40;54.30;;;;;;5021345;28;20589;-62
2022/09/05 08:05:41;;;;;;;3.42;1.83;;;22.50;54.80;;;;;;5021747;28;20939;-61
2022/09/05 08:08:13;;;;;;;3.22;1.77;;;22.50;54.30;;;;;;5019537;28;20056;-63
2022/09/05 08:10:45;;;;;;;1.90;1.60;;;22.50;54.30;;;;;;5007771;28;20489;-61
2022/09/05 08:13:15;;;;;;;4.57;1.75;;;22.60;54.30;;;;;;5016819;28;20433;-63
2022/09/05 08:15:46;;;;;;;2.33;1.70;;;22.60;54.20;;;;;;5019558;28;20045;-63
2022/09/05 08:18:18;;;;;;;1.98;1.77;;;22.70;54.10;;;;;;5021772;28;20073;-57
2022/09/05 08:20:48;;;;;;;2.58;1.58;;;22.80;53.90;;;;;;5018319;28;20057;-57
2022/09/05 08:23:33;;;;;;;2.67;1.70;;;22.80;53.90;;;;;;5016120;28;20050;-62
2022/09/05 08:26:07;;;;;;;3.00;1.75;;;22.90;53.80;;;;;;5020533;28;20057;-62
2022/09/05 08:28:43;;;;;;;2.05;1.42;;;23.00;53.60;;;;;;5021859;28;20056;-63
2022/09/05 08:31:14;;;;;;;2.20;1.48;;;23.10;53.40;;;;;;5019304;28;20065;-61
2022/09/05 08:33:43;;;;;;;4.32;2.08;;;23.10;53.20;;;;;;5021324;28;20064;-62
2022/09/05 08:36:22;;;;;;;2.47;1.27;;;23.20;53.10;;;;;;5018808;28;20053;-63
2022/09/05 08:38:53;;;;;;;1.98;1.70;;;23.30;52.80;;;;;;5020804;28;20064;-63
2022/09/05 08:41:25;;;;;;;2.78;1.38;;;23.40;52.50;;;;;;5016383;28;20065;-61
2022/09/05 08:44:01;;;;;;;1.95;1.50;;;23.50;52.30;;;;;;5020319;28;20065;-64
2022/09/05 08:46:35;;;;;;;1.50;1.40;;;23.60;51.80;;;;;;5021765;28;20053;-63
2022/09/05 08:49:35;;;;;;;2.08;1.50;;;23.70;51.70;;;;;;5020766;28;20050;-60
2022/09/05 08:52:09;;;;;;;2.70;1.50;;;23.80;51.50;;;;;;5018178;28;20076;-61
2022/09/05 08:54:50;;;;;;;2.75;1.38;;;23.90;51.60;;;;;;5020007;28;20073;-63
2022/09/05 08:57:41;;;;;;;3.65;1.38;;;24.00;51.10;;;;;;5018505;28;20050;-63
2022/09/05 09:00:11;;;;;;;1.45;1.30;;;24.10;50.70;;;;;;5017440;28;20057;-62
2022/09/05 09:02:59;;;;;;;2.33;1.30;;;24.20;50.30;;;;;;5019766;28;20054;-62
2022/09/05 09:06:13;;;;;;;2.72;1.45;;;24.30;49.80;;;;;;5018905;28;20054;-63
2022/09/05 09:09:03;;;;;;;2.17;1.23;;;24.40;49.70;;;;;;5006925;28;20406;-62
2022/09/05 09:11:35;;;;;;;1.85;1.45;;;24.50;49.10;;;;;;5014174;28;20064;-63
2022/09/05 09:14:39;;;;;;;2.58;1.13;;;24.50;48.40;;;;;;5020831;28;20049;-63
2022/09/05 09:17:26;;;;;;;2.55;1.45;;;24.70;48.50;;;;;;5019448;28;20057;-63
2022/09/05 09:20:12;;;;;;;1.40;1.20;;;24.70;47.80;;;;;;5019269;28;20509;-59
2022/09/05 09:22:45;;;;;;;2.38;1.30;;;24.80;47.10;;;;;;5021400;28;20057;-63
2022/09/05 09:25:15;;;;;;;2.03;1.38;;;25.00;47.20;;;;;;5023041;28;20049;-62
2022/09/05 09:28:13;;;;;;;4.03;1.25;;;25.00;47.20;;;;;;5024692;28;20049;-62
2022/09/05 09:30:47;;;;;;;1.98;1.40;;;25.10;46.90;;;;;;5020628;28;20061;-63
2022/09/05 09:33:23;;;;;;;3.05;1.38;;;25.20;46.70;;;;;;5024130;28;20068;-64
2022/09/05 09:35:56;;;;;;;2.03;1.30;;;25.30;45.70;;;;;;5021842;28;20058;-64
2022/09/05 09:38:35;;;;;;;5.05;1.50;;;25.40;45.20;;;;;;5023206;28;20057;-63
2022/09/05 09:41:32;;;;;;;2.10;1.35;;;25.50;45.30;;;;;;5014408;28;20057;-61
2022/09/05 09:44:56;;;;;;;3.63;1.40;;;25.50;45.50;;;;;;5022551;28;20796;-63
2022/09/05 09:47:46;;;;;;;1.65;1.40;;;25.60;44.50;;;;;;5019871;28;20054;-64
2022/09/05 09:50:26;;;;;;;1.75;1.33;;;25.70;44.20;;;;;;5020337;28;20053;-62
2022/09/05 09:53:12;;;;;;;3.65;1.55;;;25.80;44.40;;;;;;5024445;28;20053;-63
2022/09/05 09:56:05;;;;;;;3.72;1.30;;;25.80;44.00;;;;;;5020321;28;20566;-63
2022/09/05 09:58:49;;;;;;;1.50;1.27;;;25.90;43.50;;;;;;5023998;28;20058;-57
2022/09/05 10:01:29;;;;;;;1.30;1.20;;;26.00;43.30;;;;;;5021388;28;20057;-62
2022/09/05 10:04:09;;;;;;;2.78;1.40;;;26.10;43.10;;;;;;5020973;28;20057;-62
2022/09/05 10:07:16;;;;;;;2.50;1.33;;;26.10;42.00;;;;;;5022924;28;20053;-63
2022/09/05 10:10:01;;;;;;;4.22;1.42;;;26.20;42.30;;;;;;5022174;28;20057;-63
2022/09/05 10:13:04;;;;;;;1.85;1.23;;;26.20;41.80;;;;;;5024799;28;20064;-63
2022/09/05 10:15:46;;;;;;;1.45;1.20;;;26.30;41.70;;;;;;5004073;28;20049;-57
2022/09/05 10:18:41;;;;;;;1.55;1.20;;;26.40;41.10;;;;;;5023190;28;20053;-64
2022/09/05 10:21:23;;;;;;;2.08;1.20;;;26.40;41.30;;;;;;5014198;28;20056;-60
2022/09/05 10:24:23;;;;;;;4.45;1.35;;;26.40;41.30;;;;;;5024197;28;20068;-63
2022/09/05 10:27:11;;;;;;;5.20;1.25;;;26.50;41.10;;;;;;5020376;28;20053;-63
2022/09/05 10:30:07;;;;;;;1.15;0.90;;;26.50;40.60;;;;;;5021557;28;20061;-62
2022/09/05 10:32:41;;;;;;;1.75;0.98;;;26.60;40.80;;;;;;5023279;28;20053;-62
2022/09/05 10:35:15;;;;;;;;;;;26.60;40.70;;;;;;5017904;28;20049;-62
2022/09/05 10:37:44;;;;;;;1.03;0.80;;;26.70;41.30;;;;;;5019523;28;20403;-61
2022/09/05 10:40:16;;;;;;;1.08;0.90;;;26.70;40.70;;;;;;5012972;28;20933;-62
2022/09/05 10:42:48;;;;;;;2.58;0.75;;;26.70;40.20;;;;;;5017061;28;20057;-59
2022/09/05 10:45:19;;;;;;;0.85;0.82;;;26.80;39.70;;;;;;5017941;28;20049;-62
2022/09/05 10:47:58;;;;;;;1.08;0.80;;;26.80;40.10;;;;;;5016951;28;20041;-60
2022/09/05 10:50:31;;;;;;;1.33;0.93;;;26.90;39.50;;;;;;5019954;28;20053;-56
2022/09/05 10:53:23;;;;;;;0.80;0.80;;;27.00;39.30;;;;;;5023554;28;20057;-59
2022/09/05 10:56:03;;;;;;;0.88;0.80;;;27.10;38.90;;;;;;5019418;28;20060;-62
2022/09/05 10:59:00;;;;;;;1.67;0.95;;;27.10;38.40;;;;;;5022424;28;20057;-60
2022/09/05 11:01:38;;;;;;;1.05;0.65;;;27.10;35.60;;;;;;5019053;28;20054;-60
2022/09/05 11:04:15;;;;;;;1.00;0.60;;;27.20;35.40;;;;;;5023386;28;20057;-60
2022/09/05 11:06:57;;;;;;;2.58;0.90;;;27.20;36.50;;;;;;5022181;28;20057;-60
2022/09/05 11:09:49;;;;;;;1.17;0.88;;;27.30;37.50;;;;;;5019356;28;20520;-58
2022/09/05 11:12:31;;;;;;;1.25;0.85;;;27.40;37.00;;;;;;5021166;28;20060;-61
2022/09/05 11:15:01;;;;;;;2.20;0.80;;;27.50;36.40;;;;;;5020287;28;20061;-61
2022/09/05 11:17:39;;;;;;;1.17;0.90;;;27.50;36.80;;;;;;5021271;28;20405;-60
2022/09/05 11:20:36;;;;;;;2.83;0.98;;;27.60;36.40;;;;;;5015392;28;20060;-60
2022/09/05 11:23:11;;;;;;;0.88;0.80;;;27.60;36.60;;;;;;5018955;28;20050;-57
2022/09/05 11:25:39;;;;;;;1.00;0.70;;;27.70;36.70;;;;;;5014888;28;20064;-58
2022/09/05 11:28:14;;;;;;;1.27;1.00;;;27.70;36.80;;;;;;5018016;28;20405;-60
2022/09/05 11:30:46;;;;;;;1.90;0.90;;;27.80;36.70;;;;;;5008465;28;20061;-59
2022/09/05 11:33:32;;;;;;;2.00;0.95;;;27.90;36.70;;;;;;5016216;28;20058;-57
2022/09/05 11:36:02;;;;;;;2.38;1.17;;;27.90;36.10;;;;;;5016075;28;20057;-59
2022/09/05 11:38:56;;;;;;;1.65;1.00;;;28.00;36.30;;;;;;5018336;28;20048;-61
2022/09/05 11:41:51;;;;;;;1.50;0.93;;;27.90;34.70;;;;;;5014794;28;20057;-59
2022/09/05 11:44:33;;;;;;;1.98;1.00;;;28.00;35.70;;;;;;5021811;28;20057;-61
2022/09/05 11:47:45;;;;;;;0.80;0.70;;;28.10;36.00;;;;;;5020950;28;20061;-57
2022/09/05 11:50:36;;;;;;;2.60;1.15;;;28.10;35.50;;;;;;5011230;28;20545;-61
2022/09/05 11:53:45;;;;;;;0.70;0.70;;;28.10;35.60;;;;;;5016631;28;20509;-60
2022/09/05 11:56:48;;;;;;;1.73;1.05;;;28.20;36.00;;;;;;5001532;28;20057;-60
2022/09/05 11:59:51;;;;;;;1.40;1.17;;;28.20;35.80;;;;;;5015044;28;20064;-60
2022/09/05 12:02:37;;;;;;;3.63;0.90;;;28.30;35.40;;;;;;5015708;28;20765;-56
2022/09/05 12:05:33;;;;;;;0.98;0.88;;;28.30;35.60;;;;;;5019903;28;20057;-61
2022/09/05 12:08:06;;;;;;;3.22;0.93;;;28.40;35.20;;;;;;5014001;28;20121;-59
2022/09/05 12:10:57;;;;;;;1.75;0.90;;;28.40;35.10;;;;;;5008570;28;20053;-58
2022/09/05 12:13:41;;;;;;;3.90;0.82;;;28.50;34.90;;;;;;5016346;28;20064;-60
2022/09/05 12:16:34;;;;;;;2.03;0.88;;;28.50;34.70;;;;;;5014278;28;20053;-61
2022/09/05 12:19:11;;;;;;;1.25;1.00;;;28.50;34.90;;;;;;5005583;28;20053;-55
2022/09/05 12:21:50;;;;;;;1.25;0.90;;;28.60;34.60;;;;;;5009740;28;20058;-59
2022/09/05 12:24:26;;;;;;;1.25;0.73;;;28.60;34.60;;;;;;5016047;28;20056;-60
2022/09/05 12:27:00;;;;;;;1.13;1.00;;;28.60;34.60;;;;;;5018278;28;20057;-60
2022/09/05 12:29:33;;;;;;;2.08;1.10;;;28.60;33.30;;;;;;5021894;28;20054;-60
2022/09/05 12:32:04;;;;;;;0.80;0.73;;;28.60;32.70;;;;;;5015989;28;20053;-60
2022/09/05 12:34:48;;;;;;;1.05;0.70;;;28.60;33.30;;;;;;5019853;28;20050;-59
2022/09/05 12:37:27;;;;;;;1.90;0.82;;;28.70;33.30;;;;;;5013742;28;20076;-61
2022/09/05 12:39:59;;;;;;;3.55;0.82;;;28.80;33.40;;;;;;5011862;28;20596;-59
2022/09/05 12:42:39;;;;;;;1.25;0.98;;;28.80;32.80;;;;;;5018727;28;20065;-59
2022/09/05 12:45:17;;;;;;;0.75;0.70;;;28.90;33.10;;;;;;5019475;28;20057;-63
2022/09/05 12:47:55;;;;;;;0.60;0.60;;;28.90;33.30;;;;;;5020015;28;20049;-63
2022/09/05 12:50:28;;;;;;;2.90;0.70;;;29.00;31.60;;;;;;5006283;28;20506;-63
2022/09/05 12:53:01;;;;;;;0.93;0.63;;;29.00;32.30;;;;;;5016366;28;20062;-61
2022/09/05 12:55:35;;;;;;;0.80;0.60;;;29.00;32.30;;;;;;5012099;28;20453;-62
2022/09/05 12:58:16;;;;;;;1.98;1.00;;;29.10;31.10;;;;;;5014729;28;20049;-60
2022/09/05 13:00:46;;;;;;;1.65;0.90;;;29.10;30.50;;;;;;5019181;28;20410;-58
2022/09/05 13:03:21;;;;;;;1.23;1.00;;;29.20;30.90;;;;;;5023376;28;20064;-61
2022/09/05 13:05:59;;;;;;;1.52;1.10;;;29.20;31.60;;;;;;5016828;28;20058;-60
2022/09/05 13:08:32;;;;;;;0.73;0.68;;;29.20;31.50;;;;;;5024554;28;20049;-61
2022/09/05 13:11:00;;;;;;;2.13;0.98;;;29.20;31.70;;;;;;5020413;28;20060;-58
2022/09/05 13:13:33;;;;;;;1.33;0.95;;;29.30;31.60;;;;;;5016309;28;20057;-62
2022/09/05 13:16:07;;;;;;;1.92;0.90;;;29.30;30.40;;;;;;5021615;28;20072;-60
2022/09/05 13:18:40;;;;;;;5.18;1.00;;;29.30;29.90;;;;;;5023211;28;20053;-59
2022/09/05 13:21:12;;;;;;;0.77;0.77;;;29.20;31.10;;;;;;5016793;28;20050;-61
2022/09/05 13:23:45;;;;;;;1.10;0.80;;;29.30;31.00;;;;;;5023100;28;20060;-62
2022/09/05 13:26:16;;;;;;;1.05;0.75;;;29.30;31.70;;;;;;5024012;28;20057;-64
2022/09/05 13:28:50;;;;;;;1.75;0.88;;;29.30;31.60;;;;;;5024531;28;20053;-60
2022/09/05 13:31:53;;;;;;;2.17;0.98;;;29.30;31.20;;;;;;5015534;28;20061;-64
2022/09/05 13:34:25;;;;;;;1.25;0.98;;;29.30;31.40;;;;;;5019793;28;20053;-63
2022/09/05 13:37:02;;;;;;;3.13;1.00;;;29.30;31.10;;;;;;5015122;28;20053;-60
2022/09/05 13:39:54;;;;;;;1.90;0.90;;;29.30;30.10;;;;;;5021268;28;20046;-61
2022/09/05 13:42:24;;;;;;;2.15;0.90;;;29.40;30.00;;;;;;5021725;28;20054;-61
2022/09/05 13:44:55;;;;;;;1.50;1.00;;;29.40;30.60;;;;;;5024707;28;20057;-59
2022/09/05 13:47:49;;;;;;;6.70;0.93;;;29.40;29.80;;;;;;5020592;28;20061;-59
2022/09/05 13:50:28;;;;;;;1.25;0.80;;;29.40;29.40;;;;;;5014919;28;20176;-61
2022/09/05 13:53:01;;;;;;;2.17;1.10;;;29.50;29.60;;;;;;5018924;28;20064;-60
2022/09/05 13:55:39;;;;;;;8.20;0.82;;;29.50;29.20;;;;;;5012295;28;20057;-60
2022/09/05 13:58:11;;;;;;;1.23;1.00;;;29.50;29.30;;;;;;5012029;28;20065;-62
2022/09/05 14:01:10;;;;;;;0.85;0.80;;;29.60;29.20;;;;;;5012910;28;20054;-60